首页
METAR-TAF:

METAR-TAF

机场 :

斯科茨代爾, 亞利桑那州, 美国

纬度: 33-37-22N, 经度: 111-54-38W, 海拔: 460米

当前天气观测

该预报发布于39分钟前的04:53 UTC
静风
温度 14°C
湿度 88%
气压 1020 hPa
能見度: 9.7公里
多云层高于9000英尺
阴天层高于10000英尺
小雨, 轻雾

METAR: KSDL 080453Z AUTO 00000KT 6SM -RA BR BKN090 OVC100 14/12 A3013 RMK AO2 SLP190 P0008 T01440122

时间: 22:32 (05:32 UTC)

预报

该预报发布于57分钟前的04:35 UTC
预报有效从08日的 05点(UTC)到 08日的 24点(UTC)
风速4节,风向多变
能見度: 10公里
散云层高于4000英尺
多云层高于7000英尺
阴天层高于12000英尺
小阵雨
从 08日的 0505点(UTC)
风速4节,风向多变
能見度: 10公里
多云层高于4000英尺
多云层高于7000英尺
阴天层高于12000英尺
附近有阵雨
从 08日的 0900点(UTC)
风速3节,风向多变
能見度: 10公里
多云层高于4000英尺
多云层高于7000英尺
阴天层高于12000英尺
从 08日的 1400点(UTC)
风速4节,风向多变
能見度: 10公里
散云层高于6000英尺
多云层高于8000英尺
阴天层高于10000英尺
从 08日的 2100点(UTC)
风速5节,风向西转西南
能見度: 10公里
散云层高于6000英尺
多云层高于12000英尺

TAF: KSDL 080435Z 0805/0824 VRB04KT P6SM -SHRA SCT040 BKN070 OVC120 FM080505 VRB04KT P6SM VCSH BKN040 BKN070 OVC120 FM080900 VRB03KT P6SM BKN040 BKN070 OVC120 FM081400 VRB04KT P6SM SCT060 BKN080 OVC100 FM082100 24005KT P6SM SCT060 BKN120

超过4000个机场的气象观测和天气预报(METAR&TAF报告)。

可查询的气象台以黄色和红色小点在地图上表示。

将鼠标移到小点上方,可查看气象台名称。

然后点击查看天气观测和预报。

如需切换地图:点击带黑十字的绿色按钮放大地图;点击带横线的绿色按钮缩小地图;或者点击绿色箭头查看邻近地区的地图。


METAR-TAF: